createdAt,value
2019-03-25T00:01:07.068Z,44.93
2019-03-25T00:03:38.065Z,50.83
2019-03-25T00:06:08.974Z,56.87
2019-03-25T00:08:39.955Z,44.13
2019-03-25T00:11:10.804Z,43.87
2019-03-25T00:13:41.674Z,45.30
2019-03-25T00:16:12.487Z,45.77
2019-03-25T00:18:43.505Z,51.87
2019-03-25T00:21:14.296Z,47.47
2019-03-25T00:23:45.288Z,46.33
2019-03-25T00:26:16.001Z,40.90
2019-03-25T00:28:47.024Z,51.93
2019-03-25T00:31:17.816Z,43.80
2019-03-25T00:33:48.704Z,48.17
2019-03-25T00:36:20.090Z,45.67
2019-03-25T00:38:51.037Z,45.87
2019-03-25T00:41:21.829Z,55.60
2019-03-25T00:43:52.732Z,43.37
2019-03-25T00:46:23.535Z,46.37
2019-03-25T00:48:54.462Z,55.60
2019-03-25T00:51:25.318Z,51.40
2019-03-25T00:53:56.142Z,44.73
2019-03-25T00:56:26.947Z,47.83
2019-03-25T00:58:57.927Z,53.30
2019-03-25T01:01:28.753Z,50.83
2019-03-25T01:03:59.601Z,46.13
2019-03-25T01:06:30.456Z,41.03
2019-03-25T01:09:01.395Z,47.93
2019-03-25T01:11:33.780Z,55.73
2019-03-25T01:14:04.657Z,45.43
2019-03-25T01:16:35.476Z,47.87
2019-03-25T01:19:06.421Z,41.07
2019-03-25T01:21:37.394Z,46.53
2019-03-25T01:24:08.235Z,44.00
2019-03-25T01:26:39.051Z,45.00
2019-03-25T01:29:10.025Z,44.10
2019-03-25T01:31:40.853Z,41.47
2019-03-25T01:34:11.806Z,42.80
2019-03-25T01:36:43.198Z,44.20
2019-03-25T01:39:14.066Z,42.73
2019-03-25T01:41:44.925Z,36.20
2019-03-25T01:44:15.757Z,44.77
2019-03-25T01:46:46.942Z,39.10
2019-03-25T01:49:17.804Z,40.03
2019-03-25T01:51:48.610Z,38.50
2019-03-25T01:54:19.430Z,39.03
2019-03-25T01:56:50.316Z,33.53
2019-03-25T01:59:21.297Z,30.00
2019-03-25T02:01:52.207Z,35.47
2019-03-25T02:04:23.123Z,35.43
2019-03-25T02:06:53.935Z,28.33
2019-03-25T02:09:24.840Z,34.27
2019-03-25T02:11:55.736Z,30.77
2019-03-25T02:14:26.729Z,30.67
2019-03-25T02:16:57.582Z,27.53
2019-03-25T02:19:28.620Z,32.83
2019-03-25T02:21:59.486Z,33.00
2019-03-25T02:24:30.343Z,28.73
2019-03-25T02:27:01.565Z,30.40
2019-03-25T02:29:32.469Z,28.03
2019-03-25T02:32:03.318Z,27.30
2019-03-25T02:34:35.356Z,25.07
2019-03-25T02:37:08.029Z,29.23
2019-03-25T02:39:38.922Z,26.47
2019-03-25T02:42:09.706Z,26.97
2019-03-25T02:44:41.546Z,27.70
2019-03-25T02:47:12.335Z,28.90
2019-03-25T02:49:43.524Z,25.43
2019-03-25T02:52:14.392Z,25.47
2019-03-25T02:54:45.234Z,25.33
2019-03-25T02:57:16.214Z,29.43
2019-03-25T02:59:47.115Z,25.23
2019-03-25T03:02:17.955Z,29.50
2019-03-25T03:04:48.991Z,26.00
2019-03-25T03:07:19.880Z,31.67
2019-03-25T03:09:50.703Z,25.50
2019-03-25T03:12:21.502Z,27.00
2019-03-25T03:14:53.746Z,27.73
2019-03-25T03:17:24.856Z,33.70
2019-03-25T03:19:55.894Z,28.73
2019-03-25T03:22:26.677Z,28.90
2019-03-25T03:24:57.474Z,29.47
2019-03-25T03:27:29.900Z,28.27
2019-03-25T03:30:01.187Z,24.50
2019-03-25T03:32:33.246Z,22.93
2019-03-25T03:35:04.253Z,31.30
2019-03-25T03:37:35.290Z,26.40
2019-03-25T03:40:06.581Z,25.00
2019-03-25T03:42:37.454Z,25.97
2019-03-25T03:45:08.608Z,31.00
2019-03-25T03:47:39.395Z,22.53
2019-03-25T03:50:14.098Z,30.37
2019-03-25T03:52:45.411Z,26.37
2019-03-25T03:55:16.239Z,28.63
2019-03-25T03:57:47.732Z,24.73
2019-03-25T04:00:27.970Z,26.33
2019-03-25T04:02:58.792Z,21.67
2019-03-25T04:05:30.061Z,27.37
2019-03-25T04:08:01.097Z,28.00
2019-03-25T04:10:33.116Z,20.53
2019-03-25T04:13:03.880Z,29.30
2019-03-25T04:15:34.815Z,27.53
2019-03-25T04:18:05.747Z,22.80
2019-03-25T04:20:36.917Z,24.27
2019-03-25T04:23:07.781Z,25.47
2019-03-25T04:25:38.637Z,24.90
2019-03-25T04:28:09.476Z,19.33
2019-03-25T04:30:40.393Z,25.33
2019-03-25T04:33:11.254Z,21.73
2019-03-25T04:35:42.194Z,21.63
2019-03-25T04:38:13.520Z,25.20
2019-03-25T04:40:44.387Z,23.00
2019-03-25T04:43:15.327Z,22.27
2019-03-25T04:45:46.148Z,23.40
2019-03-25T04:48:16.927Z,25.23
2019-03-25T04:50:48.905Z,23.50
2019-03-25T04:53:19.819Z,21.67
2019-03-25T04:55:50.757Z,25.77
2019-03-25T04:58:21.600Z,27.47
2019-03-25T05:00:52.484Z,24.10
2019-03-25T05:03:23.304Z,26.43
2019-03-25T05:05:54.420Z,26.97
2019-03-25T05:08:25.218Z,23.17
2019-03-25T05:10:56.143Z,30.70
2019-03-25T05:13:26.967Z,21.17
2019-03-25T05:15:57.835Z,25.53
2019-03-25T05:18:28.703Z,30.00
2019-03-25T05:20:59.716Z,28.57
2019-03-25T05:23:30.503Z,34.07
2019-03-25T05:26:01.363Z,35.50
2019-03-25T05:28:32.155Z,26.50
2019-03-25T05:31:03.026Z,32.67
2019-03-25T05:33:33.826Z,29.87
2019-03-25T05:36:04.830Z,27.77
2019-03-25T05:38:36.012Z,25.67
2019-03-25T05:41:06.860Z,26.53
2019-03-25T05:43:37.734Z,25.23
2019-03-25T05:46:08.677Z,30.27
2019-03-25T05:48:42.095Z,24.63
2019-03-25T05:51:13.074Z,29.60
2019-03-25T05:53:44.955Z,21.03
2019-03-25T05:56:15.815Z,22.83
2019-03-25T05:58:48.813Z,25.90
2019-03-25T06:01:19.982Z,22.80
2019-03-25T06:03:50.728Z,22.27
2019-03-25T06:06:21.595Z,25.23
2019-03-25T06:08:52.512Z,21.20
2019-03-25T06:11:23.420Z,26.17
2019-03-25T06:13:54.235Z,25.03
2019-03-25T06:16:25.072Z,23.27
2019-03-25T06:18:55.929Z,17.77
2019-03-25T06:21:27.084Z,21.17
2019-03-25T06:23:57.893Z,21.83
2019-03-25T06:26:28.758Z,19.60
2019-03-25T06:28:59.545Z,24.00
2019-03-25T06:31:30.467Z,19.53
2019-03-25T06:34:01.281Z,14.30
2019-03-25T06:36:32.199Z,17.20
2019-03-25T06:39:04.929Z,17.90
2019-03-25T06:41:36.181Z,20.23
2019-03-25T06:44:07.126Z,16.67
2019-03-25T06:46:37.896Z,16.47
2019-03-25T06:49:08.676Z,18.30
2019-03-25T06:51:39.618Z,18.13
2019-03-25T06:54:10.430Z,17.40
2019-03-25T06:56:41.265Z,14.23
2019-03-25T06:59:12.031Z,13.43
2019-03-25T07:01:42.955Z,12.73
2019-03-25T07:04:14.803Z,25.57
2019-03-25T07:06:45.750Z,15.37
2019-03-25T07:09:18.653Z,19.17
2019-03-25T07:11:49.978Z,19.63
2019-03-25T07:14:21.430Z,16.17
2019-03-25T07:16:52.185Z,11.00
2019-03-25T07:19:22.987Z,14.67
2019-03-25T07:21:53.919Z,16.90
2019-03-25T07:24:24.719Z,11.93
2019-03-25T07:26:56.580Z,12.53
2019-03-25T07:29:28.647Z,11.60
2019-03-25T07:31:59.576Z,14.27
2019-03-25T07:34:30.939Z,11.97
2019-03-25T07:37:01.871Z,10.37
2019-03-25T07:39:32.803Z,6.70
2019-03-25T07:42:03.745Z,10.93
2019-03-25T07:44:34.477Z,8.63
2019-03-25T07:47:05.418Z,8.53
2019-03-25T07:49:36.210Z,9.73
2019-03-25T07:52:07.230Z,9.53
2019-03-25T07:54:37.953Z,15.40
2019-03-25T07:57:08.791Z,12.23
2019-03-25T07:59:39.725Z,10.20
2019-03-25T08:02:10.546Z,10.00
2019-03-25T08:04:41.823Z,7.23
2019-03-25T08:07:15.926Z,12.50
2019-03-25T08:09:46.781Z,18.43
2019-03-25T08:12:17.844Z,17.37
2019-03-25T08:14:48.669Z,12.43
2019-03-25T08:17:29.779Z,15.40
2019-03-25T08:20:00.718Z,15.13
2019-03-25T08:22:31.803Z,18.70
2019-03-25T08:25:02.987Z,18.87
2019-03-25T08:27:34.540Z,14.43
2019-03-25T08:30:07.030Z,14.17
2019-03-25T08:32:37.899Z,15.00
2019-03-25T08:35:08.923Z,16.87
2019-03-25T08:37:39.742Z,16.70
2019-03-25T08:40:10.882Z,15.00
2019-03-25T08:42:44.735Z,13.33
2019-03-25T08:45:17.122Z,15.60
2019-03-25T08:47:47.929Z,16.77
2019-03-25T08:50:19.040Z,15.27
2019-03-25T08:52:52.010Z,16.00
2019-03-25T08:55:22.787Z,9.00
2019-03-25T08:57:53.994Z,14.63
2019-03-25T09:00:24.897Z,12.20
2019-03-25T09:02:56.095Z,15.43
2019-03-25T09:05:27.237Z,17.27
2019-03-25T09:07:58.352Z,14.57
2019-03-25T09:10:29.124Z,17.13
2019-03-25T09:13:00.385Z,16.20
2019-03-25T09:15:35.577Z,12.33
2019-03-25T09:18:06.862Z,14.63
2019-03-25T09:20:37.642Z,16.50
2019-03-25T09:23:08.562Z,14.23
2019-03-25T09:25:39.385Z,18.27
2019-03-25T09:28:10.166Z,19.90
2019-03-25T09:31:19.607Z,18.87
2019-03-25T09:33:53.028Z,21.03
2019-03-25T09:36:24.647Z,14.30
2019-03-25T09:38:59.343Z,12.33
2019-03-25T09:41:31.221Z,16.73
2019-03-25T09:44:02.282Z,16.40
2019-03-25T09:46:33.506Z,19.63
2019-03-25T09:49:08.966Z,17.37
2019-03-25T09:51:42.721Z,16.20
2019-03-25T09:54:14.102Z,21.63
2019-03-25T09:56:45.458Z,15.90
2019-03-25T09:59:20.715Z,17.07
2019-03-25T10:01:52.158Z,17.17
2019-03-25T10:04:24.530Z,18.13
2019-03-25T10:06:58.492Z,18.70
2019-03-25T10:09:30.180Z,18.00
2019-03-25T10:12:01.619Z,15.83
2019-03-25T10:14:32.926Z,11.77
2019-03-25T10:17:04.023Z,13.27
2019-03-25T10:19:36.643Z,11.53
2019-03-25T10:22:07.613Z,13.70
2019-03-25T10:24:39.917Z,12.50
2019-03-25T10:27:10.971Z,11.97
2019-03-25T10:29:42.506Z,8.60
2019-03-25T10:32:19.263Z,9.83
2019-03-25T10:34:52.471Z,11.10
2019-03-25T10:37:25.167Z,7.73
2019-03-25T10:39:56.977Z,4.73
2019-03-25T10:42:28.916Z,5.90
2019-03-25T10:45:00.068Z,5.07
2019-03-25T10:47:31.005Z,4.17
2019-03-25T10:50:02.956Z,7.57
2019-03-25T10:52:33.876Z,5.03
2019-03-25T10:55:07.942Z,11.07
2019-03-25T10:57:38.904Z,6.87
2019-03-25T11:00:11.310Z,11.10
2019-03-25T11:02:42.145Z,9.40
2019-03-25T11:05:14.090Z,7.43
2019-03-25T11:07:44.840Z,8.43
2019-03-25T11:10:15.969Z,7.97
2019-03-25T11:12:46.719Z,7.53
2019-03-25T11:15:17.951Z,6.83
2019-03-25T11:17:51.108Z,9.13
2019-03-25T11:20:22.604Z,7.13
2019-03-25T11:22:55.095Z,10.17
2019-03-25T11:25:28.639Z,6.97
2019-03-25T11:27:59.521Z,6.73
2019-03-25T11:30:55.286Z,7.33
2019-03-25T11:33:26.151Z,8.70
2019-03-25T11:35:56.932Z,10.00
2019-03-25T11:38:27.757Z,6.63
2019-03-25T11:40:58.870Z,5.77
2019-03-25T11:43:30.157Z,7.53
2019-03-25T11:46:01.046Z,6.40
2019-03-25T11:48:31.880Z,5.67
2019-03-25T11:51:04.316Z,2.23
2019-03-25T11:53:36.958Z,3.83
2019-03-25T11:56:18.795Z,4.27
2019-03-25T11:58:51.901Z,4.77
2019-03-25T12:01:28.996Z,5.13
2019-03-25T12:04:10.527Z,5.73
2019-03-25T12:06:46.954Z,4.80
2019-03-25T12:09:18.601Z,5.57
2019-03-25T12:11:54.803Z,17.30
2019-03-25T12:14:28.374Z,7.97
2019-03-25T12:17:00.855Z,21.40
2019-03-25T12:19:31.751Z,19.97
2019-03-25T12:22:03.045Z,9.87
2019-03-25T12:24:34.046Z,6.37
2019-03-25T12:27:06.254Z,5.50
2019-03-25T12:29:38.506Z,5.93
2019-03-25T12:32:12.022Z,4.63
2019-03-25T12:34:45.931Z,7.70
2019-03-25T12:37:19.971Z,7.63
2019-03-25T12:39:52.594Z,2.33
2019-03-25T12:42:23.595Z,4.47
2019-03-25T12:44:55.362Z,2.30
2019-03-25T12:47:26.539Z,5.17
2019-03-25T12:49:57.317Z,4.57
2019-03-25T12:52:28.394Z,6.23
2019-03-25T12:54:59.326Z,6.47
2019-03-25T12:57:32.743Z,4.10
2019-03-25T13:00:07.049Z,7.70
2019-03-25T13:02:39.389Z,5.67
2019-03-25T13:05:10.700Z,7.13
2019-03-25T13:07:44.623Z,4.87
2019-03-25T13:10:17.307Z,6.83
2019-03-25T13:12:48.341Z,4.53
2019-03-25T13:15:19.151Z,5.40
2019-03-25T13:17:50.394Z,6.43
2019-03-25T13:20:22.884Z,5.63
2019-03-25T13:22:54.063Z,4.93
2019-03-25T13:25:26.184Z,9.67
2019-03-25T13:27:58.967Z,5.73
2019-03-25T13:30:30.005Z,6.13
2019-03-25T13:33:00.952Z,5.80
2019-03-25T13:35:31.885Z,4.60
2019-03-25T13:38:07.044Z,3.33
2019-03-25T13:40:39.093Z,7.43
2019-03-25T13:43:10.123Z,3.70
2019-03-25T13:45:41.198Z,4.33
2019-03-25T13:48:16.121Z,4.50
2019-03-25T13:50:47.367Z,3.60
2019-03-25T13:53:18.130Z,6.33
2019-03-25T13:55:52.085Z,4.00
2019-03-25T13:58:23.030Z,2.30
2019-03-25T14:00:53.900Z,4.33
2019-03-25T14:03:27.687Z,5.33
2019-03-25T14:05:58.818Z,6.37
2019-03-25T14:08:29.763Z,10.03
2019-03-25T14:11:04.168Z,6.13
2019-03-25T14:13:49.260Z,6.83
2019-03-25T14:16:18.155Z,6.20
2019-03-25T14:18:50.256Z,2.30
2019-03-25T14:21:22.185Z,4.37
2019-03-25T14:23:54.557Z,6.70
2019-03-25T14:26:27.366Z,7.43
2019-03-25T14:28:59.164Z,4.67
2019-03-25T14:31:32.032Z,4.53
2019-03-25T14:34:02.986Z,7.53
2019-03-25T14:36:33.812Z,3.53
2019-03-25T14:39:06.153Z,5.53
2019-03-25T14:41:39.903Z,10.20
2019-03-25T14:44:12.954Z,1.50
2019-03-25T14:46:44.011Z,3.47
2019-03-25T14:49:17.148Z,4.10
2019-03-25T14:51:47.871Z,7.03
2019-03-25T14:54:20.732Z,2.37
2019-03-25T14:56:52.012Z,39.67
2019-03-25T14:59:25.716Z,6.73
2019-03-25T15:01:58.792Z,5.57
2019-03-25T15:04:31.165Z,4.93
2019-03-25T15:07:45.254Z,1.67
2019-03-25T15:10:17.209Z,2.63
2019-03-25T15:12:50.293Z,5.00
2019-03-25T15:15:21.850Z,2.17
2019-03-25T15:17:54.781Z,2.83
2019-03-25T15:20:27.684Z,3.50
2019-03-25T15:23:04.579Z,4.40
2019-03-25T15:25:35.384Z,4.20
2019-03-25T15:28:09.758Z,2.77
2019-03-25T15:30:41.744Z,2.67
2019-03-25T15:33:14.766Z,4.70
2019-03-25T15:35:45.687Z,4.33
2019-03-25T15:38:18.850Z,2.40
2019-03-25T15:40:50.308Z,2.63
2019-03-25T15:43:24.581Z,4.10
2019-03-25T15:46:01.555Z,1.90
2019-03-25T15:48:35.565Z,3.60
2019-03-25T15:51:07.783Z,1.63
2019-03-25T15:53:40.605Z,3.13
2019-03-25T15:56:29.007Z,2.33
2019-03-25T15:59:30.383Z,2.27
2019-03-25T16:02:22.432Z,4.80
2019-03-25T16:05:10.371Z,5.33
2019-03-25T16:08:10.510Z,5.17
2019-03-25T16:10:54.031Z,2.37
2019-03-25T16:13:35.361Z,2.80
2019-03-25T16:16:27.780Z,6.37
2019-03-25T16:19:14.405Z,5.07
2019-03-25T16:21:55.639Z,6.63
2019-03-25T16:24:46.204Z,3.57
2019-03-25T16:27:33.214Z,2.93
2019-03-25T16:30:13.523Z,2.80
2019-03-25T16:33:03.944Z,2.63
2019-03-25T16:35:45.950Z,3.83
2019-03-25T16:38:19.067Z,1.77
2019-03-25T16:40:52.948Z,3.33
2019-03-25T16:43:27.862Z,3.50
2019-03-25T16:45:59.741Z,2.93
2019-03-25T16:48:31.237Z,5.20
2019-03-25T16:51:06.130Z,2.97
2019-03-25T16:53:37.193Z,4.37
2019-03-25T16:56:09.180Z,2.37
2019-03-25T16:58:40.120Z,2.87
2019-03-25T17:01:11.006Z,2.00
2019-03-25T17:03:41.862Z,3.03
2019-03-25T17:06:12.725Z,3.27
2019-03-25T17:08:44.136Z,3.30
2019-03-25T17:11:22.677Z,2.10
2019-03-25T17:13:53.598Z,2.53
2019-03-25T17:16:24.517Z,3.13
2019-03-25T17:18:57.495Z,1.97
2019-03-25T17:21:29.615Z,2.37
2019-03-25T17:24:00.966Z,2.30
2019-03-25T17:26:41.912Z,1.93
2019-03-25T17:29:06.435Z,2.93
2019-03-25T17:31:40.776Z,4.83
2019-03-25T17:34:16.321Z,2.40
2019-03-25T17:36:48.243Z,2.17
2019-03-25T17:39:20.855Z,4.80
2019-03-25T17:41:52.824Z,2.77
2019-03-25T17:44:25.662Z,2.77
2019-03-25T17:46:58.517Z,3.10
2019-03-25T17:49:29.354Z,7.67
2019-03-25T17:52:08.212Z,1.93
2019-03-25T17:54:40.116Z,1.83
2019-03-25T17:57:10.963Z,2.43
2019-03-25T17:59:42.276Z,3.87
2019-03-25T18:02:19.275Z,2.93
2019-03-25T18:05:22.187Z,2.43
2019-03-25T18:07:55.833Z,2.60
2019-03-25T18:10:28.025Z,4.50
2019-03-25T18:13:00.820Z,5.57
2019-03-25T18:15:33.470Z,3.47
2019-03-25T18:18:06.611Z,3.73
2019-03-25T18:20:37.589Z,2.70
2019-03-25T18:23:10.123Z,3.37
2019-03-25T18:25:42.361Z,3.57
2019-03-25T18:28:13.752Z,4.13
2019-03-25T18:30:44.624Z,4.23
2019-03-25T18:33:20.731Z,3.03
2019-03-25T18:35:56.601Z,2.83
2019-03-25T18:38:27.933Z,3.60
2019-03-25T18:41:00.048Z,4.73
2019-03-25T18:43:32.996Z,4.37
2019-03-25T18:46:04.227Z,4.53
2019-03-25T18:48:35.217Z,3.80
2019-03-25T18:51:07.831Z,3.17
2019-03-25T18:53:41.989Z,3.53
2019-03-25T18:56:13.000Z,18.70
2019-03-25T18:58:45.073Z,14.57
2019-03-25T19:01:16.057Z,22.27
2019-03-25T19:03:49.742Z,16.73
2019-03-25T19:06:25.514Z,6.60
2019-03-25T19:08:57.194Z,6.07
2019-03-25T19:11:31.347Z,3.20
2019-03-25T19:14:04.864Z,4.13
2019-03-25T19:16:38.996Z,2.63
2019-03-25T19:19:11.086Z,4.97
2019-03-25T19:21:41.921Z,3.37
2019-03-25T19:24:12.794Z,4.73
2019-03-25T19:26:43.841Z,3.53
2019-03-25T19:29:15.167Z,3.97
2019-03-25T19:31:46.488Z,3.00
2019-03-25T19:34:17.815Z,3.63
2019-03-25T19:36:48.712Z,4.80
2019-03-25T19:39:21.815Z,4.50
2019-03-25T19:41:54.519Z,5.13
2019-03-25T19:44:26.472Z,4.30
2019-03-25T19:46:57.939Z,4.33
2019-03-25T19:49:29.579Z,4.03
2019-03-25T19:52:09.472Z,4.27
2019-03-25T19:54:41.669Z,4.17
2019-03-25T19:57:12.776Z,4.13
2019-03-25T19:59:46.039Z,10.30
2019-03-25T20:02:19.271Z,5.07
2019-03-25T20:04:50.934Z,4.07
2019-03-25T20:07:21.767Z,5.00
2019-03-25T20:09:54.042Z,5.40
2019-03-25T20:12:27.706Z,21.20
2019-03-25T20:15:01.633Z,6.20
2019-03-25T20:17:34.665Z,9.13
2019-03-25T20:20:07.954Z,5.63
2019-03-25T20:22:39.825Z,4.87
2019-03-25T20:25:11.239Z,5.77
2019-03-25T20:27:44.947Z,4.93
2019-03-25T20:30:18.333Z,5.20
2019-03-25T20:32:49.642Z,5.03
2019-03-25T20:35:23.496Z,6.87
2019-03-25T20:37:54.982Z,5.70
2019-03-25T20:40:33.165Z,7.40
2019-03-25T20:43:04.648Z,5.70
2019-03-25T20:45:38.130Z,7.93
2019-03-25T20:48:11.754Z,4.20
2019-03-25T20:50:43.014Z,4.50
2019-03-25T20:53:17.496Z,5.63
2019-03-25T20:55:50.302Z,5.17
2019-03-25T20:58:25.089Z,6.53
2019-03-25T21:00:59.719Z,7.23
2019-03-25T21:03:33.936Z,5.27
2019-03-25T21:06:07.498Z,4.40
2019-03-25T21:08:39.515Z,6.47
2019-03-25T21:11:10.688Z,5.10
2019-03-25T21:13:41.763Z,4.67
2019-03-25T21:16:15.857Z,6.77
2019-03-25T21:18:47.010Z,4.00
2019-03-25T21:21:18.356Z,4.77
2019-03-25T21:23:50.933Z,5.27
2019-03-25T21:26:25.447Z,5.03
2019-03-25T21:28:58.301Z,6.27
2019-03-25T21:31:30.744Z,6.90
2019-03-25T21:34:01.735Z,8.23
2019-03-25T21:36:34.952Z,7.30
2019-03-25T21:39:10.656Z,5.87
2019-03-25T21:41:41.733Z,5.20
2019-03-25T21:44:12.937Z,4.33
2019-03-25T21:46:45.026Z,4.43
2019-03-25T21:49:16.549Z,4.57
2019-03-25T21:51:52.998Z,7.83
2019-03-25T21:54:24.109Z,6.67
2019-03-25T21:56:58.801Z,5.20
2019-03-25T21:59:32.283Z,7.60
2019-03-25T22:02:05.339Z,5.20
2019-03-25T22:04:37.141Z,4.47
2019-03-25T22:07:10.851Z,7.30
2019-03-25T22:09:46.631Z,6.67
2019-03-25T22:12:19.171Z,5.47
2019-03-25T22:14:51.409Z,4.87
2019-03-25T22:17:24.151Z,8.10
2019-03-25T22:19:56.045Z,4.63
2019-03-25T22:22:32.923Z,6.17
2019-03-25T22:25:06.856Z,6.43
2019-03-25T22:27:40.294Z,5.20
2019-03-25T22:30:13.943Z,5.83
2019-03-25T22:32:45.417Z,7.00
2019-03-25T22:35:18.203Z,5.67
2019-03-25T22:37:52.149Z,5.73
2019-03-25T22:40:24.093Z,6.47
2019-03-25T22:42:56.922Z,9.10
2019-03-25T22:45:32.673Z,7.00
2019-03-25T22:48:07.265Z,6.60
2019-03-25T22:50:38.416Z,13.67
2019-03-25T22:53:09.352Z,5.83
2019-03-25T22:55:40.468Z,5.37
2019-03-25T22:58:11.602Z,7.07
2019-03-25T23:00:45.841Z,12.63
2019-03-25T23:03:18.038Z,7.73
2019-03-25T23:05:49.008Z,7.43
2019-03-25T23:08:20.435Z,9.43
2019-03-25T23:10:52.661Z,6.57
2019-03-25T23:13:25.137Z,6.37
2019-03-25T23:15:56.556Z,5.17
2019-03-25T23:18:27.805Z,6.00
2019-03-25T23:20:59.553Z,6.33
2019-03-25T23:23:31.926Z,6.07
2019-03-25T23:26:04.727Z,5.37
2019-03-25T23:28:37.285Z,6.50
2019-03-25T23:31:10.109Z,7.73
2019-03-25T23:33:51.699Z,6.50
2019-03-25T23:36:13.827Z,5.77
2019-03-25T23:38:45.572Z,9.50
2019-03-25T23:41:17.429Z,9.00
2019-03-25T23:43:49.964Z,10.30
2019-03-25T23:46:22.377Z,7.83
2019-03-25T23:48:54.313Z,8.47
2019-03-25T23:51:27.376Z,7.63
2019-03-25T23:54:13.691Z,6.77
2019-03-25T23:56:46.678Z,6.97
2019-03-25T23:59:18.401Z,7.97
